createdAt,value
2022-11-05T00:02:18.306Z,77.29
2022-11-05T00:05:04.926Z,77.29
2022-11-05T00:08:04.596Z,77.61
2022-11-05T00:10:36.541Z,77.44
2022-11-05T00:13:26.132Z,77.53
2022-11-05T00:16:13.007Z,77.76
2022-11-05T00:18:40.478Z,77.76
2022-11-05T00:21:27.419Z,77.73
2022-11-05T00:24:27.457Z,78.01
2022-11-05T00:26:54.887Z,77.76
2022-11-05T00:29:22.907Z,77.80
2022-11-05T00:31:52.197Z,77.80
2022-11-05T00:34:24.305Z,78.05
2022-11-05T00:36:52.380Z,78.22
2022-11-05T00:39:20.161Z,78.15
2022-11-05T00:42:09.516Z,77.96
2022-11-05T00:44:58.893Z,78.12
2022-11-05T00:47:45.285Z,78.05
2022-11-05T00:50:13.611Z,78.20
2022-11-05T00:52:56.000Z,78.14
2022-11-05T00:55:37.703Z,78.15
2022-11-05T00:58:08.359Z,78.29
2022-11-05T01:00:41.046Z,78.20
2022-11-05T01:03:12.872Z,78.29
2022-11-05T01:05:53.567Z,78.46
2022-11-05T01:08:28.933Z,78.13
2022-11-05T01:10:59.403Z,78.47
2022-11-05T01:13:30.854Z,78.29
2022-11-05T01:16:08.342Z,78.30
2022-11-05T01:18:43.262Z,78.34
2022-11-05T01:21:15.537Z,78.46
2022-11-05T01:23:43.107Z,78.60
2022-11-05T01:26:10.870Z,78.57
2022-11-05T01:28:39.196Z,78.79
2022-11-05T01:31:08.305Z,78.63
2022-11-05T01:33:38.161Z,78.63
2022-11-05T01:36:06.317Z,78.67
2022-11-05T01:38:35.203Z,79.01
2022-11-05T01:41:12.814Z,78.89
2022-11-05T01:43:47.978Z,79.16
2022-11-05T01:46:19.553Z,79.28
2022-11-05T01:48:50.456Z,78.95
2022-11-05T01:54:08.587Z,79.02
2022-11-05T01:56:41.006Z,79.16
2022-11-05T01:59:37.208Z,79.27
2022-11-05T02:02:07.536Z,79.19
2022-11-05T02:05:00.392Z,79.46
2022-11-05T02:07:29.340Z,79.50
2022-11-05T02:10:07.204Z,79.43
2022-11-05T02:12:37.894Z,79.59
2022-11-05T02:15:10.479Z,79.56
2022-11-05T02:17:51.585Z,79.73
2022-11-05T02:20:32.723Z,79.91
2022-11-05T02:23:12.557Z,79.89
2022-11-05T02:26:04.825Z,80.08
2022-11-05T02:29:02.351Z,80.15
2022-11-05T02:31:37.528Z,80.05
2022-11-05T02:34:33.539Z,80.40
2022-11-05T02:37:16.263Z,80.53
2022-11-05T02:40:16.570Z,80.64
2022-11-05T02:43:08.918Z,80.32
2022-11-05T02:46:15.086Z,80.58
2022-11-05T02:49:14.376Z,80.60
2022-11-05T02:51:57.953Z,80.62
2022-11-05T02:54:38.463Z,80.65
2022-11-05T02:57:06.842Z,80.72
2022-11-05T02:59:43.573Z,80.91
2022-11-05T03:02:38.532Z,80.78
2022-11-05T03:05:07.361Z,80.99
2022-11-05T03:07:55.607Z,81.07
2022-11-05T03:10:47.318Z,81.01
2022-11-05T03:13:27.078Z,81.27
2022-11-05T03:16:02.590Z,81.35
2022-11-05T03:18:38.984Z,81.42
2022-11-05T03:21:38.724Z,81.35
2022-11-05T03:24:17.413Z,81.42
2022-11-05T03:26:56.355Z,81.50
2022-11-05T03:29:33.740Z,81.70
2022-11-05T03:32:04.097Z,81.46
2022-11-05T03:34:40.722Z,81.59
2022-11-05T03:37:11.693Z,81.66
2022-11-05T03:39:47.544Z,81.70
2022-11-05T03:42:18.347Z,81.91
2022-11-05T03:45:17.134Z,81.78
2022-11-05T03:47:48.950Z,81.80
2022-11-05T03:50:59.627Z,81.76
2022-11-05T03:53:31.863Z,81.87
2022-11-05T03:56:11.192Z,81.92
2022-11-05T03:58:43.851Z,81.85
2022-11-05T04:01:16.787Z,81.96
2022-11-05T04:03:45.644Z,81.91
2022-11-05T04:06:33.964Z,82.03
2022-11-05T04:09:20.139Z,82.05
2022-11-05T04:12:09.983Z,82.06
2022-11-05T04:14:45.516Z,82.00
2022-11-05T04:17:14.219Z,82.01
2022-11-05T04:20:26.377Z,82.28
2022-11-05T04:23:33.783Z,82.27
2022-11-05T04:26:10.230Z,82.26
2022-11-05T04:28:57.819Z,82.22
2022-11-05T04:31:25.217Z,82.19
2022-11-05T04:33:54.288Z,82.09
2022-11-05T04:39:51.156Z,82.63
2022-11-05T04:42:38.603Z,82.48
2022-11-05T04:45:30.997Z,82.60
2022-11-05T04:48:20.156Z,82.42
2022-11-05T04:54:26.423Z,82.63
2022-11-05T04:57:21.367Z,82.36
2022-11-05T05:06:43.393Z,82.61
2022-11-05T05:12:39.240Z,82.46
2022-11-05T05:15:14.867Z,82.56
2022-11-05T05:17:53.633Z,82.42
2022-11-05T05:20:51.091Z,82.76
2022-11-05T05:23:47.964Z,82.68
2022-11-05T05:26:22.043Z,82.85
2022-11-05T05:29:08.404Z,82.93
2022-11-05T05:31:56.173Z,83.07
2022-11-05T05:41:42.155Z,82.98
2022-11-05T05:44:22.301Z,82.98
2022-11-05T05:46:58.186Z,83.03
2022-11-05T05:49:37.425Z,83.08
2022-11-05T05:52:12.234Z,83.20
2022-11-05T05:55:02.097Z,83.02
2022-11-05T05:57:43.025Z,83.15
2022-11-05T06:00:18.316Z,83.06
2022-11-05T06:02:56.296Z,83.05
2022-11-05T06:05:31.879Z,82.97
2022-11-05T06:08:17.185Z,83.22
2022-11-05T06:10:55.210Z,83.22
2022-11-05T06:13:31.670Z,83.27
2022-11-05T06:16:09.156Z,83.21
2022-11-05T06:18:47.915Z,83.27
2022-11-05T06:21:23.993Z,83.24
2022-11-05T06:24:04.299Z,83.19
2022-11-05T06:34:18.664Z,83.15
2022-11-05T06:36:53.643Z,83.16
2022-11-05T06:39:22.266Z,83.32
2022-11-05T06:42:16.629Z,83.30
2022-11-05T06:44:38.469Z,83.44
2022-11-05T06:47:07.681Z,83.27
2022-11-05T06:49:42.957Z,83.27
2022-11-05T06:52:12.404Z,83.33
2022-11-05T06:54:44.122Z,83.38
2022-11-05T06:57:20.970Z,83.31
2022-11-05T07:00:37.074Z,83.40
2022-11-05T07:05:50.837Z,83.47
2022-11-05T07:08:19.122Z,83.50
2022-11-05T07:10:46.672Z,83.41
2022-11-05T07:13:16.221Z,83.46
2022-11-05T07:15:45.557Z,83.45
2022-11-05T07:18:13.232Z,83.49
2022-11-05T07:20:41.808Z,83.44
2022-11-05T07:23:15.290Z,83.45
2022-11-05T07:25:44.973Z,83.49
2022-11-05T07:28:14.643Z,83.51
2022-11-05T07:30:42.645Z,83.52
2022-11-05T07:33:12.906Z,83.60
2022-11-05T07:35:41.373Z,83.61
2022-11-05T07:38:10.357Z,83.72
2022-11-05T07:40:39.398Z,83.64
2022-11-05T07:43:08.074Z,83.64
2022-11-05T07:45:37.045Z,83.61
2022-11-05T07:48:05.982Z,83.55
2022-11-05T07:50:37.181Z,83.69
2022-11-05T08:00:37.489Z,83.68
2022-11-05T08:20:19.498Z,83.94
2022-11-05T08:23:09.492Z,83.96
2022-11-05T08:25:45.322Z,83.94
2022-11-05T08:42:04.160Z,84.19
2022-11-05T08:45:20.330Z,84.27
2022-11-05T08:48:01.790Z,84.35
2022-11-05T08:50:30.265Z,84.37
2022-11-05T08:52:59.723Z,84.43
2022-11-05T08:58:58.865Z,84.18
2022-11-05T09:01:27.676Z,84.25
2022-11-05T09:03:56.682Z,84.27
2022-11-05T09:06:24.770Z,84.27
2022-11-05T09:08:52.891Z,84.35
2022-11-05T09:11:29.369Z,84.42
2022-11-05T09:14:10.218Z,84.47
2022-11-05T09:16:38.452Z,84.45
2022-11-05T09:19:06.543Z,84.60
2022-11-05T09:21:37.374Z,84.59
2022-11-05T09:24:07.373Z,84.56
2022-11-05T09:26:38.329Z,84.53
2022-11-05T09:29:10.327Z,84.65
2022-11-05T09:31:42.125Z,84.70
2022-11-05T09:34:11.918Z,84.63
2022-11-05T09:36:40.987Z,84.58
2022-11-05T09:39:09.650Z,84.57
2022-11-05T09:41:42.414Z,84.67
2022-11-05T09:44:17.460Z,84.50
2022-11-05T09:46:54.414Z,84.71
2022-11-05T09:49:39.824Z,84.78
2022-11-05T09:52:33.897Z,84.63
2022-11-05T09:58:15.308Z,84.80
2022-11-05T10:00:45.068Z,84.70
2022-11-05T10:07:54.235Z,84.56
2022-11-05T10:39:13.106Z,84.45
2022-11-05T10:47:19.159Z,84.40
2022-11-05T10:54:25.219Z,84.64
2022-11-05T10:57:41.413Z,85.01
2022-11-05T11:00:24.807Z,84.67
2022-11-05T11:17:28.006Z,84.89
2022-11-05T11:20:30.579Z,84.73
2022-11-05T11:28:33.122Z,84.69
2022-11-05T11:36:05.107Z,84.07
2022-11-05T11:39:29.026Z,84.36
2022-11-05T11:42:00.408Z,84.43
2022-11-05T11:44:40.998Z,84.34
2022-11-05T11:47:15.997Z,84.27
2022-11-05T11:49:55.462Z,84.01
2022-11-05T11:52:41.079Z,84.58
2022-11-05T11:55:18.259Z,84.72
2022-11-05T11:58:06.647Z,84.50
2022-11-05T12:00:50.593Z,84.78
2022-11-05T12:03:38.081Z,84.42
2022-11-05T12:06:33.986Z,84.32
2022-11-05T12:09:08.033Z,84.27
2022-11-05T12:11:58.930Z,84.58
2022-11-05T12:14:46.639Z,83.99
2022-11-05T12:17:27.092Z,84.43
2022-11-05T12:20:30.681Z,84.46
2022-11-05T12:23:06.925Z,84.74
2022-11-05T12:26:07.388Z,84.56
2022-11-05T12:29:18.391Z,84.50
2022-11-05T12:32:25.845Z,84.51
2022-11-05T12:35:27.370Z,84.60
2022-11-05T12:38:09.242Z,84.50
2022-11-05T12:40:54.813Z,84.73
2022-11-05T12:43:53.663Z,84.40
2022-11-05T12:46:24.379Z,84.56
2022-11-05T12:49:17.907Z,84.23
2022-11-05T12:52:09.390Z,84.40
2022-11-05T12:54:55.175Z,84.34
2022-11-05T12:57:24.005Z,84.34
2022-11-05T12:59:58.532Z,84.61
2022-11-05T13:02:28.646Z,84.71
2022-11-05T13:05:17.496Z,84.29
2022-11-05T13:08:00.851Z,83.94
2022-11-05T13:10:41.161Z,84.45
2022-11-05T13:13:37.651Z,84.60
2022-11-05T13:16:11.316Z,84.58
2022-11-05T13:18:53.001Z,84.61
2022-11-05T13:21:25.299Z,84.54
2022-11-05T13:24:14.898Z,84.36
2022-11-05T13:26:54.087Z,84.30
2022-11-05T13:29:49.937Z,84.47
2022-11-05T13:32:24.368Z,84.56
2022-11-05T13:34:55.048Z,84.42
2022-11-05T13:37:49.185Z,84.35
2022-11-05T13:40:22.635Z,84.28
2022-11-05T13:43:17.339Z,84.36
2022-11-05T13:46:13.163Z,84.45
2022-11-05T13:48:59.054Z,84.14
2022-11-05T13:51:48.180Z,84.18
2022-11-05T13:54:32.906Z,84.25
2022-11-05T13:57:38.896Z,84.22
2022-11-05T14:00:07.895Z,84.61
2022-11-05T14:02:43.280Z,84.58
2022-11-05T14:05:29.718Z,84.30
2022-11-05T14:08:07.613Z,84.57
2022-11-05T14:10:56.683Z,84.41
2022-11-05T14:13:42.005Z,84.26
2022-11-05T14:16:22.067Z,84.06
2022-11-05T14:19:11.373Z,83.90
2022-11-05T14:21:56.799Z,83.86
2022-11-05T14:24:44.031Z,83.65
2022-11-05T14:27:33.061Z,83.69
2022-11-05T14:30:44.267Z,84.02
2022-11-05T14:33:40.390Z,84.02
2022-11-05T14:36:21.851Z,84.22
2022-11-05T14:38:53.407Z,83.85
2022-11-05T14:41:22.186Z,83.96
2022-11-05T14:44:01.090Z,83.90
2022-11-05T14:46:46.922Z,83.73
2022-11-05T14:49:26.298Z,83.66
2022-11-05T14:51:59.522Z,83.79
2022-11-05T14:54:48.311Z,83.65
2022-11-05T14:57:40.463Z,83.50
2022-11-05T15:00:40.559Z,83.79
2022-11-05T15:03:47.188Z,83.95
2022-11-05T15:06:37.843Z,83.55
2022-11-05T15:09:19.284Z,83.36
2022-11-05T15:11:56.489Z,83.23
2022-11-05T15:14:42.642Z,83.56
2022-11-05T15:17:29.513Z,83.63
2022-11-05T15:20:08.184Z,83.74
2022-11-05T15:22:44.557Z,83.62
2022-11-05T15:25:27.570Z,83.58
2022-11-05T15:28:08.219Z,82.98
2022-11-05T15:30:36.412Z,83.00
2022-11-05T15:33:31.058Z,83.03
2022-11-05T15:36:19.929Z,83.03
2022-11-05T15:39:15.157Z,83.16
2022-11-05T15:41:38.379Z,83.14
2022-11-05T15:44:06.131Z,83.01
2022-11-05T15:46:34.595Z,83.12
2022-11-05T15:49:11.268Z,83.35
2022-11-05T15:51:39.961Z,83.51
2022-11-05T15:54:36.037Z,83.65
2022-11-05T15:57:19.931Z,83.49
2022-11-05T15:59:49.728Z,83.41
2022-11-05T16:02:34.648Z,83.61
2022-11-05T16:05:09.985Z,83.86
2022-11-05T16:07:43.679Z,83.79
2022-11-05T16:10:20.963Z,83.78
2022-11-05T16:12:49.747Z,83.84
2022-11-05T16:15:29.177Z,83.72
2022-11-05T16:17:59.690Z,84.17
2022-11-05T16:20:34.509Z,83.80
2022-11-05T16:23:21.683Z,83.84
2022-11-05T16:25:52.331Z,83.83
2022-11-05T16:28:24.292Z,83.83
2022-11-05T16:31:00.499Z,84.09
2022-11-05T16:33:50.781Z,84.00
2022-11-05T16:36:20.178Z,83.73
2022-11-05T16:38:50.307Z,83.92
2022-11-05T16:41:22.717Z,84.05
2022-11-05T16:43:58.355Z,84.03
2022-11-05T16:46:28.744Z,84.21
2022-11-05T16:48:58.290Z,84.20
2022-11-05T16:51:28.534Z,84.30
2022-11-05T16:53:58.925Z,84.25
2022-11-05T16:56:27.361Z,84.37
2022-11-05T16:58:55.261Z,84.25
2022-11-05T17:01:27.737Z,84.65
2022-11-05T17:03:55.606Z,84.39
2022-11-05T17:06:25.191Z,84.46
2022-11-05T17:08:55.211Z,83.97
2022-11-05T17:11:24.059Z,84.37
2022-11-05T17:13:54.034Z,84.41
2022-11-05T17:16:23.679Z,84.45
2022-11-05T17:18:54.238Z,84.15
2022-11-05T17:21:23.980Z,84.44
2022-11-05T17:23:53.247Z,84.07
2022-11-05T17:26:23.254Z,84.50
2022-11-05T17:28:51.564Z,84.61
2022-11-05T17:31:21.379Z,84.71
2022-11-05T17:33:49.291Z,84.68
2022-11-05T17:36:20.131Z,84.61
2022-11-05T17:38:48.661Z,84.86
2022-11-05T17:41:20.310Z,84.87
2022-11-05T17:43:53.209Z,84.85
2022-11-05T17:46:21.776Z,84.78
2022-11-05T17:48:50.710Z,84.54
2022-11-05T17:51:21.758Z,84.43
2022-11-05T17:53:50.868Z,84.59
2022-11-05T17:56:28.864Z,84.61
2022-11-05T17:59:04.059Z,84.59
2022-11-05T18:01:35.982Z,84.64
2022-11-05T18:04:09.074Z,84.74
2022-11-05T18:06:40.180Z,84.59
2022-11-05T18:09:10.332Z,84.74
2022-11-05T18:11:40.390Z,84.91
2022-11-05T18:14:09.279Z,84.92
2022-11-05T18:16:37.710Z,84.87
2022-11-05T18:19:06.629Z,84.82
2022-11-05T18:21:36.844Z,84.77
2022-11-05T18:24:06.867Z,84.85
2022-11-05T18:26:35.868Z,84.95
2022-11-05T18:29:08.469Z,84.93
2022-11-05T18:31:42.003Z,84.92
2022-11-05T18:34:11.035Z,84.86
2022-11-05T18:36:42.089Z,84.83
2022-11-05T18:39:12.237Z,84.98
2022-11-05T18:41:42.107Z,85.15
2022-11-05T18:44:15.647Z,85.12
2022-11-05T18:46:57.707Z,85.12
2022-11-05T18:49:27.507Z,85.10
2022-11-05T18:51:55.944Z,85.13
2022-11-05T18:54:27.632Z,85.15
2022-11-05T18:56:59.508Z,85.23
2022-11-05T18:59:39.133Z,85.10
2022-11-05T19:02:12.871Z,85.20
2022-11-05T19:05:00.391Z,85.16
2022-11-05T19:07:31.206Z,85.28
2022-11-05T19:10:03.561Z,85.40
2022-11-05T19:12:34.946Z,85.20
2022-11-05T19:15:04.701Z,85.06
2022-11-05T19:17:35.258Z,85.09
2022-11-05T19:20:07.070Z,85.07
2022-11-05T19:22:41.540Z,85.23
2022-11-05T19:25:10.619Z,85.10
2022-11-05T19:27:41.198Z,84.93
2022-11-05T19:30:12.722Z,85.03
2022-11-05T19:32:43.058Z,84.98
2022-11-05T19:35:12.447Z,84.99
2022-11-05T19:37:41.048Z,85.18
2022-11-05T19:40:10.819Z,85.13
2022-11-05T19:42:39.410Z,85.13
2022-11-05T19:45:38.301Z,85.00
2022-11-05T19:48:01.356Z,84.97
2022-11-05T19:50:32.830Z,85.08
2022-11-05T19:53:02.836Z,84.97
2022-11-05T19:55:32.450Z,84.99
2022-11-05T19:58:03.211Z,85.13
2022-11-05T20:00:35.223Z,84.87
2022-11-05T20:03:06.963Z,84.80
2022-11-05T20:05:35.741Z,84.71
2022-11-05T20:08:06.087Z,84.70
2022-11-05T20:10:40.899Z,84.59
2022-11-05T20:13:19.465Z,85.05
2022-11-05T20:15:48.600Z,84.92
2022-11-05T20:18:24.718Z,84.70
2022-11-05T20:21:09.099Z,84.91
2022-11-05T20:23:39.419Z,84.92
2022-11-05T20:26:08.822Z,84.54
2022-11-05T20:28:40.810Z,84.42
2022-11-05T20:31:14.933Z,84.90
2022-11-05T20:33:46.371Z,84.92
2022-11-05T20:36:22.508Z,85.16
2022-11-05T20:38:55.544Z,85.07
2022-11-05T20:41:26.511Z,85.00
2022-11-05T20:43:56.862Z,84.85
2022-11-05T20:46:24.860Z,85.12
2022-11-05T20:48:56.242Z,85.32
2022-11-05T20:51:25.476Z,85.21
2022-11-05T20:53:57.851Z,85.21
2022-11-05T20:56:29.673Z,85.11
2022-11-05T20:59:05.101Z,84.80
2022-11-05T21:01:33.984Z,84.77
2022-11-05T21:04:04.223Z,84.68
2022-11-05T21:06:36.602Z,85.18
2022-11-05T21:09:07.660Z,85.16
2022-11-05T21:11:55.732Z,85.00
2022-11-05T21:14:27.745Z,85.03
2022-11-05T21:16:57.297Z,85.08
2022-11-05T21:19:26.666Z,84.68
2022-11-05T21:21:55.653Z,84.54
2022-11-05T21:24:25.537Z,84.41
2022-11-05T21:26:54.834Z,84.38
2022-11-05T21:29:23.411Z,84.42
2022-11-05T21:31:53.523Z,85.00
2022-11-05T21:34:23.581Z,85.09
2022-11-05T21:36:55.805Z,85.13
2022-11-05T21:39:26.801Z,85.15
2022-11-05T21:41:56.232Z,84.92
2022-11-05T21:44:24.510Z,84.79
2022-11-05T21:46:58.336Z,84.90
2022-11-05T21:49:30.604Z,84.99
2022-11-05T21:52:17.323Z,84.88
2022-11-05T21:55:06.841Z,84.96
2022-11-05T21:57:53.927Z,85.02
2022-11-05T22:00:25.812Z,84.64
2022-11-05T22:02:54.968Z,84.57
2022-11-05T22:05:28.961Z,84.84
2022-11-05T22:07:56.752Z,85.05
2022-11-05T22:10:24.651Z,85.09
2022-11-05T22:12:54.672Z,85.13
2022-11-05T22:15:24.409Z,85.07
2022-11-05T22:17:52.885Z,84.90
2022-11-05T22:20:22.719Z,84.76
2022-11-05T22:22:51.842Z,85.09
2022-11-05T22:25:21.219Z,85.06
2022-11-05T22:27:48.845Z,84.68
2022-11-05T22:30:20.788Z,84.55
2022-11-05T22:32:51.949Z,83.98
2022-11-05T22:35:20.654Z,84.20
2022-11-05T22:37:49.210Z,84.22
2022-11-05T22:40:19.003Z,84.30
2022-11-05T22:42:48.649Z,84.24
2022-11-05T22:45:16.692Z,84.52
2022-11-05T22:47:45.381Z,84.48
2022-11-05T22:50:15.601Z,84.65
2022-11-05T22:52:43.343Z,84.52
2022-11-05T22:55:13.091Z,84.36
2022-11-05T22:57:42.483Z,84.48
2022-11-05T23:00:17.641Z,84.45
2022-11-05T23:02:45.188Z,84.09
2022-11-05T23:05:13.556Z,84.33
2022-11-05T23:08:00.520Z,84.69
2022-11-05T23:10:48.834Z,84.85
2022-11-05T23:13:16.730Z,84.54
2022-11-05T23:16:04.339Z,84.27
2022-11-05T23:18:51.050Z,84.03
2022-11-05T23:21:36.981Z,84.03
2022-11-05T23:24:05.936Z,84.14
2022-11-05T23:26:50.763Z,84.35
2022-11-05T23:29:21.191Z,84.61
2022-11-05T23:32:08.402Z,84.46
2022-11-05T23:34:39.068Z,84.54
2022-11-05T23:37:26.759Z,84.57
2022-11-05T23:39:58.825Z,84.49
2022-11-05T23:42:44.929Z,84.38
2022-11-05T23:45:52.808Z,84.60
2022-11-05T23:48:38.420Z,85.19
2022-11-05T23:51:08.880Z,85.05
2022-11-05T23:53:39.760Z,84.89
2022-11-05T23:56:16.850Z,84.77
2022-11-05T23:58:47.407Z,84.66
